Middle Georgia Regional Airport
KMCN : now visible

Airfield :











YOU CAN JOIN US ON...

 
LOGIN :

Register | Disclaimer

   EN    FR    IT 

 









Legend :    VFR   Marginal VFR   IFR   Intensive IFR   Very Intensive IFR
Visi :
Ceiling :
>= 8 km
>= 3000ft
5 to 8 km
1000 to 3000 ft
1500m to 5 km
500 to 1000 ft
800 to 1500m
200 to 500 ft
< 800m
< 200 ft
Symbols :   Thunderstorms  Fog  Heavy snow  Heavy precipitations  Wind > 20 kt







- Airport Elevation : 354 ft
- IATA code : MCN


KMCN - Middle Georgia Regional

CURRENT METAR :
  • 201553Z 26012KT 10SM FEW028 OVC036 11/07 A2983 RMK AO2 SLP099 T01110067

EXPIRED METARs :
  • 201453Z 23012G18KT 10SM FEW021 SCT027 OVC034 10/07 A2982 RMK AO2 RAE20 SLP097 P0001 60001 T01000072 51019
  • 201353Z 23009KT 10SM -RA BKN036 OVC049 09/07 A2981 RMK AO2 RAB1259 SLP092 P0000 T00940072

TAF KMCN
Valid from the 20 at 14:00 until the 21 at 12:00 UTC


201357Z 2014/2112 24010G18KT P6SM BKN035 OVC045
TEMPO 2014/2017 6SM -SHRA BKN025
FM201700 26013G21KT P6SM OVC035
FM202300 27009KT P6SM OVC050
FM210200 27004KT P6SM SCT070
KZTL FIR / North America



MET'MAP, your aeronautical weather chart ! - Copyright ORBIFLY December 2007 - Disclaimer

ORBIFLY MET'MAP TEAM :

Programming & Development : Alexandra Zaïnal
Concept & Development : Baudouin d'Aumeries
Co-Development & Prog : Marc-Olivier Méhu
Technical & hardware support : Manuel Goepfert

Contact : metmap@orbifly.com




SOURCES & CREDITS :

   NOAA       Earth
Advisory